Time;durP1;ratioP1;P1;durP2;ratioP2;P2;SDS_P1;SDS_P2;PMS_P1;PMS_P2;Temp;Humidity;BMP_temperature;BMP_pressure;BME280_temperature;BME280_humidity;BME280_pressure;Samples;Min_cycle;Max_cycle;Signal;HPM_P1;HPM_P2
2021/08/26 00:06:21;;;;;;;13.50;7.33;;;19.10;62.30;;;;;;5032930;28;20204;-46
2021/08/26 00:08:50;;;;;;;10.73;6.73;;;19.30;61.60;;;;;;5031927;28;20481;-47
2021/08/26 00:11:23;;;;;;;8.27;6.60;;;19.50;61.00;;;;;;5032484;28;20435;-48
2021/08/26 00:13:51;;;;;;;8.90;6.90;;;19.60;60.40;;;;;;5031980;28;20440;-46
2021/08/26 00:16:21;;;;;;;7.67;6.83;;;19.50;60.40;;;;;;5032388;28;20519;-46
2021/08/26 00:18:47;;;;;;;10.00;7.03;;;19.60;60.40;;;;;;5031489;28;20488;-47
2021/08/26 00:21:14;;;;;;;10.40;6.80;;;19.60;60.10;;;;;;5029402;28;21081;-50
2021/08/26 00:23:40;;;;;;;8.23;6.20;;;19.70;60.00;;;;;;5030050;28;20900;-46
2021/08/26 00:26:06;;;;;;;8.30;6.63;;;19.50;60.10;;;;;;5032243;28;20432;-51
2021/08/26 00:28:32;;;;;;;6.97;6.27;;;19.60;60.10;;;;;;5031474;28;20511;-49
2021/08/26 00:30:57;;;;;;;9.60;7.43;;;19.70;59.80;;;;;;5032331;28;20197;-50
2021/08/26 00:33:23;;;;;;;9.63;6.57;;;19.80;59.60;;;;;;5031595;28;20208;-51
2021/08/26 00:35:49;;;;;;;7.10;6.40;;;19.80;59.40;;;;;;5032114;28;20570;-50
2021/08/26 00:38:14;;;;;;;7.40;6.20;;;19.90;59.30;;;;;;5031465;28;20607;-51
2021/08/26 00:40:40;;;;;;;8.47;6.70;;;19.90;59.10;;;;;;5032329;28;20247;-51
2021/08/26 00:43:06;;;;;;;8.83;6.40;;;20.00;59.00;;;;;;5031581;28;20193;-50
2021/08/26 00:45:34;;;;;;;10.87;6.70;;;19.90;59.10;;;;;;5031955;28;20201;-51
2021/08/26 00:48:02;;;;;;;8.30;7.30;;;19.70;59.70;;;;;;5031200;28;20199;-49
2021/08/26 00:50:28;;;;;;;7.60;6.27;;;19.60;59.70;;;;;;5030443;28;20430;-48
2021/08/26 00:52:54;;;;;;;8.60;6.77;;;19.60;59.70;;;;;;5030963;28;20432;-51
2021/08/26 00:55:20;;;;;;;6.80;6.10;;;19.70;59.40;;;;;;5032053;28;20225;-51
2021/08/26 00:57:46;;;;;;;8.33;6.43;;;19.80;59.30;;;;;;5031111;28;20543;-51
2021/08/26 01:00:12;;;;;;;9.53;6.60;;;19.80;59.20;;;;;;5031885;28;20482;-50
2021/08/26 01:02:59;;;;;;;10.40;7.10;;;19.80;59.10;;;;;;5030627;28;20600;-51
2021/08/26 01:05:49;;;;;;;11.17;6.93;;;19.60;59.60;;;;;;5031721;28;20817;-50
2021/08/26 01:08:40;;;;;;;6.80;6.10;;;19.60;59.70;;;;;;5031002;28;20831;-51
2021/08/26 01:11:06;;;;;;;7.50;6.40;;;19.60;59.70;;;;;;5031759;28;20451;-51
2021/08/26 01:13:41;;;;;;;7.43;6.63;;;19.50;60.00;;;;;;5030937;28;20416;-52
2021/08/26 01:16:08;;;;;;;9.30;6.90;;;19.50;59.90;;;;;;5029865;28;20466;-51
2021/08/26 01:18:44;;;;;;;8.20;6.80;;;19.50;59.70;;;;;;5031069;28;20483;-52
2021/08/26 01:21:19;;;;;;;6.87;6.17;;;19.50;59.70;;;;;;5028583;28;20426;-51
2021/08/26 01:23:52;;;;;;;9.00;7.40;;;19.60;59.60;;;;;;5030658;28;20419;-51
2021/08/26 01:26:26;;;;;;;7.33;6.30;;;19.60;59.40;;;;;;5031340;28;20419;-52
2021/08/26 01:28:54;;;;;;;9.93;8.07;;;19.60;59.10;;;;;;5031652;28;20570;-51
2021/08/26 01:31:21;;;;;;;9.33;6.13;;;19.60;59.10;;;;;;5031611;28;20486;-50
2021/08/26 01:33:51;;;;;;;8.97;6.80;;;19.60;59.00;;;;;;5030620;28;20420;-51
2021/08/26 01:36:17;;;;;;;7.83;6.53;;;19.60;58.90;;;;;;5031394;28;20428;-51
2021/08/26 01:38:44;;;;;;;9.17;6.70;;;19.60;58.80;;;;;;5030821;28;20868;-52
2021/08/26 01:41:14;;;;;;;9.43;6.73;;;19.60;58.80;;;;;;5034558;28;20439;-51
2021/08/26 01:43:46;;;;;;;7.30;6.20;;;19.60;59.00;;;;;;5033073;28;20822;-51
2021/08/26 01:46:15;;;;;;;7.70;6.90;;;19.60;59.00;;;;;;5035443;28;20439;-51
2021/08/26 01:48:43;;;;;;;8.87;6.93;;;19.50;59.30;;;;;;5034715;28;20420;-51
2021/08/26 01:51:09;;;;;;;8.20;6.73;;;19.30;59.70;;;;;;5035187;28;20424;-50
2021/08/26 01:53:34;;;;;;;7.83;6.17;;;19.20;60.20;;;;;;5034475;28;20652;-51
2021/08/26 01:56:00;;;;;;;7.80;6.77;;;19.30;60.10;;;;;;5035262;28;20197;-51
2021/08/26 01:58:25;;;;;;;10.70;7.13;;;19.30;59.70;;;;;;5034495;28;20228;-52
2021/08/26 02:00:51;;;;;;;11.07;7.10;;;19.40;59.50;;;;;;5035106;28;20197;-52
2021/08/26 02:03:17;;;;;;;8.13;7.20;;;19.30;59.60;;;;;;5034276;28;20662;-51
2021/08/26 02:05:42;;;;;;;9.57;7.10;;;19.40;59.60;;;;;;5035159;28;20189;-50
2021/08/26 02:08:08;;;;;;;7.23;6.47;;;19.40;59.50;;;;;;5034383;28;20201;-51
2021/08/26 02:10:33;;;;;;;10.60;7.27;;;19.40;59.40;;;;;;5033375;28;20594;-50
2021/08/26 02:12:59;;;;;;;7.63;6.37;;;19.40;59.30;;;;;;5033804;28;20542;-51
2021/08/26 02:15:25;;;;;;;8.50;6.93;;;19.40;59.10;;;;;;5035032;28;20197;-51
2021/08/26 02:17:50;;;;;;;8.47;6.30;;;19.40;59.20;;;;;;5034387;28;20668;-51
2021/08/26 02:20:16;;;;;;;6.70;5.70;;;19.40;59.30;;;;;;5031525;28;20201;-51
2021/08/26 02:22:42;;;;;;;8.53;7.50;;;19.40;59.20;;;;;;5033737;28;20197;-51
2021/08/26 02:25:09;;;;;;;8.73;7.00;;;19.30;59.30;;;;;;5034636;28;20574;-50
2021/08/26 02:27:35;;;;;;;9.30;7.33;;;19.30;59.10;;;;;;5033857;28;20912;-51
2021/08/26 02:30:01;;;;;;;10.30;6.77;;;19.30;59.20;;;;;;5034709;28;20434;-51
2021/08/26 02:32:29;;;;;;;9.27;7.03;;;19.30;59.10;;;;;;5033566;28;20221;-51
2021/08/26 02:34:57;;;;;;;10.77;7.33;;;19.30;59.10;;;;;;5034228;28;20961;-51
2021/08/26 02:37:23;;;;;;;9.57;7.20;;;19.30;59.00;;;;;;5032534;28;20474;-51
2021/08/26 02:39:48;;;;;;;9.80;6.13;;;19.20;58.90;;;;;;5034262;28;20862;-51
2021/08/26 02:42:14;;;;;;;10.37;7.17;;;19.20;59.30;;;;;;5033920;28;20424;-52
2021/08/26 02:44:40;;;;;;;7.40;6.57;;;19.20;59.60;;;;;;5034155;28;20216;-51
2021/08/26 02:47:05;;;;;;;7.30;6.60;;;19.10;59.50;;;;;;5033880;28;20220;-52
2021/08/26 02:49:32;;;;;;;10.23;6.90;;;19.10;59.70;;;;;;5034267;28;20202;-51
2021/08/26 02:51:57;;;;;;;11.07;6.93;;;19.00;59.80;;;;;;5033121;28;20185;-52
2021/08/26 02:54:23;;;;;;;9.93;7.40;;;19.00;59.70;;;;;;5033928;28;20797;-51
2021/08/26 02:56:48;;;;;;;8.50;6.97;;;19.00;59.60;;;;;;5033599;28;20251;-51
2021/08/26 02:59:14;;;;;;;9.70;6.90;;;18.90;59.90;;;;;;5033995;28;20231;-50
2021/08/26 03:01:39;;;;;;;10.20;7.80;;;18.90;60.00;;;;;;5033120;28;20232;-52
2021/08/26 03:04:05;;;;;;;7.57;6.30;;;18.60;60.90;;;;;;5032510;28;20204;-51
2021/08/26 03:06:30;;;;;;;7.40;6.70;;;18.40;61.70;;;;;;5034056;28;20645;-51
2021/08/26 03:08:56;;;;;;;8.03;6.97;;;18.30;62.20;;;;;;5033233;28;20262;-51
2021/08/26 03:11:21;;;;;;;9.13;6.63;;;18.40;62.00;;;;;;5033828;28;20200;-51
2021/08/26 03:13:47;;;;;;;8.00;6.87;;;18.40;61.80;;;;;;5032740;28;20200;-51
2021/08/26 03:16:13;;;;;;;9.93;6.57;;;18.50;61.80;;;;;;5033922;28;20318;-51
2021/08/26 03:18:38;;;;;;;8.10;7.00;;;18.60;61.60;;;;;;5032670;28;20328;-52
2021/08/26 03:21:04;;;;;;;12.47;7.40;;;18.60;61.90;;;;;;5030349;28;20185;-50
2021/08/26 03:23:30;;;;;;;12.10;8.70;;;18.60;62.40;;;;;;5032563;28;20197;-51
2021/08/26 03:25:55;;;;;;;9.20;6.90;;;18.70;61.50;;;;;;5033572;28;20196;-52
2021/08/26 03:28:21;;;;;;;8.63;6.87;;;18.80;61.30;;;;;;5031150;28;20201;-51
2021/08/26 03:30:47;;;;;;;7.50;6.80;;;18.90;61.30;;;;;;5033392;28;20189;-51
2021/08/26 03:33:12;;;;;;;9.50;6.80;;;18.90;61.20;;;;;;5032464;28;20196;-51
2021/08/26 03:35:38;;;;;;;10.97;7.20;;;18.90;61.20;;;;;;5033367;28;20421;-52
2021/08/26 03:38:04;;;;;;;9.20;7.07;;;18.90;61.10;;;;;;5032358;28;20228;-51
2021/08/26 03:40:29;;;;;;;9.60;7.40;;;19.00;61.20;;;;;;5033282;28;20239;-52
2021/08/26 03:42:55;;;;;;;8.10;6.57;;;18.90;61.00;;;;;;5032381;28;20239;-50
2021/08/26 03:45:21;;;;;;;9.03;7.60;;;19.00;61.00;;;;;;5033252;28;20302;-49
2021/08/26 03:47:47;;;;;;;9.30;6.17;;;19.00;61.10;;;;;;5032248;28;20520;-51
2021/08/26 03:50:13;;;;;;;9.23;6.93;;;19.00;61.10;;;;;;5033112;28;20614;-47
2021/08/26 03:52:38;;;;;;;8.67;6.90;;;18.90;61.20;;;;;;5037115;28;20666;-48
2021/08/26 03:55:05;;;;;;;7.97;6.27;;;18.90;61.60;;;;;;5051215;28;20207;-49
2021/08/26 03:57:30;;;;;;;9.00;7.07;;;18.90;61.60;;;;;;5051993;28;20193;-50
2021/08/26 03:59:56;;;;;;;10.87;8.17;;;18.90;61.40;;;;;;5051458;28;20524;-51
2021/08/26 04:02:23;;;;;;;7.20;6.50;;;18.90;61.20;;;;;;5050950;28;20192;-51
2021/08/26 04:04:48;;;;;;;8.97;7.33;;;19.00;61.10;;;;;;5052775;28;20193;-51
2021/08/26 04:07:15;;;;;;;9.40;7.30;;;18.90;61.40;;;;;;5052113;28;20427;-50
2021/08/26 04:09:41;;;;;;;8.43;6.57;;;18.80;61.40;;;;;;5052654;28;20560;-48
2021/08/26 04:12:08;;;;;;;12.40;7.70;;;18.90;61.50;;;;;;5052111;28;20423;-48
2021/08/26 04:14:33;;;;;;;8.33;6.80;;;18.90;61.60;;;;;;5039320;28;20428;-52
2021/08/26 04:16:59;;;;;;;9.17;7.13;;;18.90;61.40;;;;;;5031862;28;20419;-50
2021/08/26 04:19:25;;;;;;;10.60;6.30;;;18.90;61.10;;;;;;5029520;28;20282;-50
2021/08/26 04:21:50;;;;;;;10.40;7.60;;;19.00;61.10;;;;;;5029875;28;20204;-52
2021/08/26 04:24:16;;;;;;;7.57;6.47;;;18.80;61.50;;;;;;5032259;28;20201;-52
2021/08/26 04:26:42;;;;;;;12.50;7.90;;;18.70;62.30;;;;;;5032691;28;20625;-52
2021/08/26 04:29:08;;;;;;;7.27;6.23;;;18.80;62.30;;;;;;5031825;28;20190;-51
2021/08/26 04:31:34;;;;;;;8.07;6.80;;;18.80;61.90;;;;;;5032115;28;20201;-50
2021/08/26 04:34:00;;;;;;;9.37;6.63;;;18.90;61.70;;;;;;5031287;28;20455;-52
2021/08/26 04:36:25;;;;;;;8.17;6.83;;;19.00;61.50;;;;;;5032262;28;20428;-50
2021/08/26 04:38:51;;;;;;;9.20;7.40;;;19.00;61.20;;;;;;5031420;28;20221;-51
2021/08/26 04:41:17;;;;;;;6.67;5.97;;;19.00;61.10;;;;;;5032080;28;20259;-51
2021/08/26 04:43:42;;;;;;;14.90;7.50;;;19.10;60.90;;;;;;5031191;28;20213;-52
2021/08/26 04:46:08;;;;;;;8.13;7.33;;;19.10;60.70;;;;;;5031974;28;20236;-50
2021/08/26 04:48:34;;;;;;;8.93;7.47;;;19.20;60.60;;;;;;5029530;28;20193;-52
2021/08/26 04:50:59;;;;;;;12.00;7.10;;;19.20;60.30;;;;;;5031984;28;20181;-50
2021/08/26 04:53:25;;;;;;;10.57;7.87;;;19.20;60.10;;;;;;5030960;28;20649;-49
2021/08/26 04:55:50;;;;;;;10.33;6.80;;;19.30;60.20;;;;;;5032116;28;20196;-51
2021/08/26 04:58:16;;;;;;;7.70;6.77;;;19.30;60.30;;;;;;5031005;28;20213;-47
2021/08/26 05:00:41;;;;;;;8.97;7.00;;;19.30;60.40;;;;;;5031948;28;20788;-51
2021/08/26 05:03:07;;;;;;;9.17;6.83;;;19.30;60.30;;;;;;5031000;28;20249;-48
2021/08/26 05:05:33;;;;;;;15.17;8.17;;;19.30;60.30;;;;;;5031776;28;20220;-47
2021/08/26 05:07:58;;;;;;;8.23;7.30;;;19.40;60.40;;;;;;5030962;28;20641;-48
2021/08/26 05:10:24;;;;;;;8.97;6.77;;;19.40;60.50;;;;;;5031676;28;20197;-52
2021/08/26 05:12:49;;;;;;;12.20;7.13;;;19.40;60.70;;;;;;5031141;28;20542;-49
2021/08/26 05:15:15;;;;;;;10.53;7.03;;;19.40;60.90;;;;;;5029973;28;20193;-50
2021/08/26 05:17:41;;;;;;;9.00;6.83;;;19.40;60.90;;;;;;5030553;28;20294;-49
2021/08/26 05:20:07;;;;;;;20.93;9.13;;;19.50;60.90;;;;;;5028471;28;20644;-48
2021/08/26 05:22:32;;;;;;;9.10;7.03;;;19.40;60.90;;;;;;5030683;28;20205;-52
2021/08/26 05:24:58;;;;;;;12.37;7.80;;;19.50;60.70;;;;;;5031453;28;20550;-50
2021/08/26 05:27:24;;;;;;;8.60;7.40;;;19.50;60.50;;;;;;5031253;28;20645;-48
2021/08/26 05:29:49;;;;;;;8.80;6.90;;;19.50;60.30;;;;;;5031548;28;20193;-51
2021/08/26 05:32:15;;;;;;;9.87;6.93;;;19.50;60.30;;;;;;5029344;28;20203;-51
2021/08/26 05:34:43;;;;;;;9.20;7.50;;;19.60;60.30;;;;;;5031374;28;20219;-49
2021/08/26 05:37:09;;;;;;;7.83;6.67;;;19.60;60.30;;;;;;5031066;28;20200;-51
2021/08/26 05:39:35;;;;;;;12.00;7.93;;;19.60;60.40;;;;;;5031401;28;20529;-50
2021/08/26 05:42:01;;;;;;;8.23;7.37;;;19.70;60.70;;;;;;5029280;28;20436;-48
2021/08/26 05:44:27;;;;;;;8.57;7.67;;;19.70;60.90;;;;;;5030793;28;20196;-48
2021/08/26 05:46:52;;;;;;;8.70;7.30;;;19.70;61.60;;;;;;5030616;28;20200;-51
2021/08/26 05:49:18;;;;;;;10.50;8.03;;;19.70;60.40;;;;;;5031405;28;20197;-51
2021/08/26 05:51:44;;;;;;;9.67;7.80;;;19.70;60.20;;;;;;5030936;28;20193;-48
2021/08/26 05:54:09;;;;;;;8.27;7.23;;;19.80;60.00;;;;;;5030752;28;20284;-48
2021/08/26 05:56:35;;;;;;;11.23;8.13;;;19.80;59.70;;;;;;5031316;28;20208;-52
2021/08/26 05:59:01;;;;;;;10.83;7.67;;;19.80;59.60;;;;;;5030035;28;20257;-51
2021/08/26 06:01:28;;;;;;;11.10;8.17;;;19.90;59.70;;;;;;5031462;28;20201;-47
2021/08/26 06:03:54;;;;;;;8.70;7.60;;;19.80;59.80;;;;;;5030434;28;20194;-47
2021/08/26 06:06:19;;;;;;;11.70;8.77;;;19.90;60.00;;;;;;5031226;28;20439;-49
2021/08/26 06:08:45;;;;;;;12.73;7.77;;;19.90;60.00;;;;;;5028788;28;20432;-51
2021/08/26 06:11:10;;;;;;;8.20;7.40;;;20.00;60.70;;;;;;5031356;28;20221;-52
2021/08/26 06:13:36;;;;;;;14.53;9.00;;;20.00;59.80;;;;;;5030365;28;20197;-48
2021/08/26 06:16:02;;;;;;;11.60;8.73;;;20.10;59.90;;;;;;5031145;28;20210;-49
2021/08/26 06:18:28;;;;;;;11.10;9.37;;;20.10;59.80;;;;;;5030441;28;20233;-50
2021/08/26 06:20:53;;;;;;;10.20;8.13;;;20.10;59.70;;;;;;5028042;28;20220;-50
2021/08/26 06:23:19;;;;;;;9.07;7.80;;;20.20;59.70;;;;;;5030393;28;20198;-51
2021/08/26 06:25:45;;;;;;;13.03;8.30;;;20.20;59.70;;;;;;5031974;28;20189;-47
2021/08/26 06:28:10;;;;;;;11.40;7.70;;;20.20;59.60;;;;;;5034181;28;20197;-50
2021/08/26 06:30:36;;;;;;;10.00;8.80;;;20.30;59.40;;;;;;5034318;28;20203;-51
2021/08/26 06:33:01;;;;;;;13.00;9.17;;;20.30;59.40;;;;;;5032263;28;20668;-52
2021/08/26 06:35:27;;;;;;;12.57;8.60;;;20.30;59.40;;;;;;5032644;28;20236;-50
2021/08/26 06:37:52;;;;;;;10.50;8.37;;;20.40;59.30;;;;;;5034003;28;20243;-47
2021/08/26 06:40:18;;;;;;;13.63;8.20;;;20.40;59.30;;;;;;5034661;28;20189;-50
2021/08/26 06:42:44;;;;;;;12.50;8.27;;;20.40;59.40;;;;;;5033202;28;20248;-51
2021/08/26 06:45:10;;;;;;;9.90;8.10;;;20.40;59.50;;;;;;5034341;28;20185;-52
2021/08/26 06:47:35;;;;;;;15.63;9.60;;;20.40;59.50;;;;;;5033553;28;20569;-48
2021/08/26 06:50:01;;;;;;;10.63;8.63;;;20.50;59.60;;;;;;5033283;28;20432;-47
2021/08/26 06:52:27;;;;;;;11.33;8.30;;;20.50;59.40;;;;;;5032911;28;20216;-52
2021/08/26 06:54:52;;;;;;;10.47;9.03;;;20.50;59.50;;;;;;5034388;28;20192;-48
2021/08/26 06:57:18;;;;;;;16.57;8.43;;;20.50;59.80;;;;;;5033527;28;20566;-50
2021/08/26 06:59:44;;;;;;;10.40;8.50;;;20.60;59.90;;;;;;5033612;28;20220;-48
2021/08/26 07:02:09;;;;;;;10.80;9.70;;;20.60;59.80;;;;;;5031949;28;20251;-48
2021/08/26 07:04:35;;;;;;;11.07;8.83;;;20.50;59.50;;;;;;5033803;28;20668;-51
2021/08/26 07:07:01;;;;;;;13.50;9.83;;;20.50;59.60;;;;;;5033457;28;20662;-48
2021/08/26 07:09:26;;;;;;;13.80;10.40;;;20.60;59.70;;;;;;5033957;28;20719;-50
2021/08/26 07:11:52;;;;;;;14.80;10.33;;;20.60;59.80;;;;;;5033208;28;20224;-51
2021/08/26 07:14:18;;;;;;;13.40;11.17;;;20.50;59.90;;;;;;5033226;28;20197;-51
2021/08/26 07:16:44;;;;;;;12.00;10.80;;;20.50;60.00;;;;;;5033542;28;20193;-51
2021/08/26 07:19:09;;;;;;;12.10;10.40;;;20.50;59.90;;;;;;5032896;28;20241;-52
2021/08/26 07:21:35;;;;;;;13.20;11.80;;;20.50;59.80;;;;;;5031126;28;20197;-50
2021/08/26 07:24:00;;;;;;;13.47;12.07;;;20.50;60.30;;;;;;5032372;28;20193;-50
2021/08/26 07:26:26;;;;;;;17.93;12.60;;;20.50;60.30;;;;;;5032357;28;20189;-52
2021/08/26 07:28:54;;;;;;;12.43;11.00;;;20.60;60.50;;;;;;5031522;28;20197;-50
2021/08/26 07:31:20;;;;;;;19.50;12.10;;;20.60;60.30;;;;;;5033600;28;20205;-50
2021/08/26 07:33:46;;;;;;;13.07;10.73;;;20.60;60.10;;;;;;5032468;28;20439;-51
2021/08/26 07:36:11;;;;;;;12.53;10.93;;;20.70;60.30;;;;;;5033362;28;20800;-51
2021/08/26 07:38:37;;;;;;;14.53;12.57;;;20.60;60.00;;;;;;5032623;28;20225;-52
2021/08/26 07:41:03;;;;;;;12.20;11.00;;;20.70;60.00;;;;;;5033241;28;20190;-47
2021/08/26 07:43:31;;;;;;;14.33;11.77;;;20.70;59.70;;;;;;5032381;28;20186;-52
2021/08/26 07:45:57;;;;;;;12.60;10.97;;;20.70;59.70;;;;;;5033120;28;20597;-48
2021/08/26 07:48:23;;;;;;;12.23;10.90;;;20.70;59.60;;;;;;5043471;28;20427;-51
2021/08/26 07:50:49;;;;;;;12.67;11.37;;;20.60;59.70;;;;;;5053078;28;20526;-48
2021/08/26 07:53:15;;;;;;;12.70;11.40;;;20.60;59.80;;;;;;5037114;28;20436;-49
2021/08/26 07:55:41;;;;;;;13.17;11.63;;;20.70;59.80;;;;;;5032889;28;20474;-49
2021/08/26 07:58:07;;;;;;;12.53;11.23;;;20.70;59.70;;;;;;5032730;28;20189;-51
2021/08/26 08:00:33;;;;;;;13.50;11.37;;;20.70;60.40;;;;;;5033062;28;20420;-48
2021/08/26 08:02:58;;;;;;;14.03;12.50;;;20.70;60.60;;;;;;5031885;28;20194;-49
2021/08/26 08:05:24;;;;;;;14.87;12.50;;;20.70;61.10;;;;;;5032742;28;20197;-50
2021/08/26 08:07:49;;;;;;;13.90;12.43;;;20.70;61.70;;;;;;5032553;28;20288;-51
2021/08/26 08:10:16;;;;;;;16.07;12.50;;;20.60;62.20;;;;;;5032668;28;20208;-47
2021/08/26 08:12:42;;;;;;;15.23;13.67;;;20.50;62.80;;;;;;5031652;28;20542;-48
2021/08/26 08:15:09;;;;;;;17.03;12.67;;;20.50;63.00;;;;;;5032563;28;20459;-52
2021/08/26 08:17:36;;;;;;;15.13;13.47;;;20.40;63.40;;;;;;5031824;28;20428;-51
2021/08/26 08:20:03;;;;;;;17.47;12.50;;;20.40;63.60;;;;;;5027675;28;20479;-49
2021/08/26 08:22:29;;;;;;;13.60;11.73;;;20.40;63.80;;;;;;5031505;28;20801;-51
2021/08/26 08:24:55;;;;;;;13.50;12.10;;;20.40;64.00;;;;;;5032172;28;20424;-47
2021/08/26 08:27:21;;;;;;;12.90;11.60;;;20.40;64.20;;;;;;5030825;28;20193;-47
2021/08/26 08:29:47;;;;;;;14.40;12.20;;;20.20;64.70;;;;;;5027550;28;20197;-50
2021/08/26 08:32:13;;;;;;;14.17;12.00;;;20.10;65.30;;;;;;5027516;28;20937;-48
2021/08/26 08:34:40;;;;;;;13.83;11.50;;;20.10;65.50;;;;;;5028082;28;20441;-49
2021/08/26 08:37:05;;;;;;;12.80;11.30;;;20.20;65.50;;;;;;5030880;28;20497;-52
2021/08/26 08:39:31;;;;;;;13.70;11.80;;;20.30;65.80;;;;;;5016514;28;20575;-51
2021/08/26 08:41:57;;;;;;;13.00;11.53;;;20.30;65.60;;;;;;5038633;28;20669;-46
2021/08/26 08:44:23;;;;;;;13.80;11.97;;;20.10;65.80;;;;;;5038106;28;20203;-49
2021/08/26 08:46:49;;;;;;;13.90;12.00;;;20.20;66.40;;;;;;5025530;28;21309;-51
2021/08/26 08:49:20;;;;;;;15.03;12.37;;;20.20;66.50;;;;;;5022737;28;20273;-47
2021/08/26 08:51:45;;;;;;;12.60;11.10;;;20.30;66.40;;;;;;5026875;28;20617;-49
2021/08/26 08:54:11;;;;;;;14.00;11.40;;;20.20;66.10;;;;;;5019794;28;20507;-51
2021/08/26 08:56:36;;;;;;;15.00;11.67;;;20.20;66.50;;;;;;5023668;28;20656;-51
2021/08/26 08:59:03;;;;;;;13.83;12.07;;;20.30;66.50;;;;;;5018402;28;20355;-50
2021/08/26 09:01:29;;;;;;;13.03;11.70;;;20.20;66.20;;;;;;5017703;28;20320;-50
2021/08/26 09:03:55;;;;;;;15.30;12.40;;;20.30;66.50;;;;;;5017089;28;20440;-51
2021/08/26 09:06:21;;;;;;;14.40;12.87;;;20.40;66.60;;;;;;5022259;28;20471;-46
2021/08/26 09:09:04;;;;;;;14.80;13.23;;;20.40;66.50;;;;;;5024419;28;20193;-46
2021/08/26 09:11:30;;;;;;;14.60;13.00;;;20.40;66.20;;;;;;5021900;28;20194;-51
2021/08/26 09:13:56;;;;;;;17.40;13.20;;;20.20;66.10;;;;;;5020627;28;20947;-51
2021/08/26 09:16:37;;;;;;;16.20;14.03;;;20.20;66.70;;;;;;5024869;28;20428;-47
2021/08/26 09:19:24;;;;;;;14.87;13.37;;;20.30;66.70;;;;;;5022104;28;20251;-51
2021/08/26 09:21:50;;;;;;;17.10;13.67;;;20.10;66.70;;;;;;5027130;28;20436;-47
2021/08/26 09:24:16;;;;;;;13.73;12.43;;;20.10;67.20;;;;;;5017433;28;20437;-47
2021/08/26 09:26:47;;;;;;;14.83;13.30;;;20.30;66.60;;;;;;5030842;28;20436;-48
2021/08/26 09:29:15;;;;;;;15.90;12.20;;;20.50;66.50;;;;;;5012639;28;20555;-46
2021/08/26 09:31:43;;;;;;;16.50;12.50;;;20.60;65.90;;;;;;5022143;28;20584;-48
2021/08/26 09:34:19;;;;;;;13.97;12.40;;;20.60;65.20;;;;;;5015658;28;20432;-49
2021/08/26 09:36:48;;;;;;;14.17;12.77;;;20.70;65.30;;;;;;5014679;28;20502;-50
2021/08/26 09:39:19;;;;;;;14.13;12.70;;;20.80;65.30;;;;;;5026618;28;20491;-48
2021/08/26 09:41:52;;;;;;;13.10;11.37;;;20.80;65.30;;;;;;5016419;28;20437;-47
2021/08/26 09:44:24;;;;;;;15.30;13.70;;;20.80;65.60;;;;;;5024314;28;20432;-46
2021/08/26 09:46:51;;;;;;;14.70;13.20;;;20.90;65.70;;;;;;5027489;28;20842;-47
2021/08/26 09:49:19;;;;;;;14.33;12.93;;;20.80;66.00;;;;;;5017021;28;20493;-46
2021/08/26 09:52:00;;;;;;;14.17;12.83;;;20.70;66.00;;;;;;5023117;28;20471;-48
2021/08/26 09:54:29;;;;;;;15.37;13.77;;;20.50;66.50;;;;;;5020962;28;20770;-47
2021/08/26 09:56:55;;;;;;;14.70;13.20;;;20.40;66.70;;;;;;5022253;28;20457;-46
2021/08/26 09:59:39;;;;;;;13.37;12.07;;;20.40;67.20;;;;;;5020110;28;20528;-49
2021/08/26 10:02:06;;;;;;;13.00;11.80;;;20.40;67.60;;;;;;5021559;28;20451;-49
2021/08/26 10:04:32;;;;;;;12.73;11.60;;;20.40;67.70;;;;;;5024131;28;20478;-49
2021/08/26 10:06:58;;;;;;;12.73;11.53;;;20.40;67.80;;;;;;5030380;28;20440;-50
2021/08/26 10:09:24;;;;;;;13.00;11.70;;;20.40;67.60;;;;;;5029586;28;20787;-50
2021/08/26 10:11:50;;;;;;;12.77;11.50;;;20.30;67.90;;;;;;5026770;28;20462;-50
2021/08/26 10:14:16;;;;;;;10.93;9.97;;;20.20;68.50;;;;;;5021008;28;20955;-47
2021/08/26 10:16:42;;;;;;;9.27;8.50;;;20.20;68.60;;;;;;5027318;28;20570;-50
2021/08/26 10:19:12;;;;;;;9.67;8.67;;;19.90;69.20;;;;;;5021951;28;20241;-50
2021/08/26 10:21:38;;;;;;;8.13;7.43;;;19.80;68.70;;;;;;5031979;28;20431;-48
2021/08/26 10:24:04;;;;;;;9.47;8.57;;;19.80;68.60;;;;;;5025208;28;20470;-49
2021/08/26 10:26:30;;;;;;;8.13;7.43;;;19.90;69.00;;;;;;5042806;28;20419;-49
2021/08/26 10:28:57;;;;;;;8.13;7.33;;;19.90;69.10;;;;;;5029430;28;20442;-47
2021/08/26 10:31:32;;;;;;;8.00;7.30;;;20.00;69.00;;;;;;5030136;28;20416;-51
2021/08/26 10:34:19;;;;;;;8.20;7.50;;;20.00;69.20;;;;;;5023941;28;20427;-47
2021/08/26 10:36:56;;;;;;;7.13;6.53;;;20.00;69.90;;;;;;5019089;28;21015;-47
2021/08/26 10:39:42;;;;;;;8.50;7.20;;;20.20;69.50;;;;;;5028092;28;20548;-47
2021/08/26 10:42:17;;;;;;;7.30;6.60;;;20.00;68.70;;;;;;5018733;28;20456;-46
2021/08/26 10:45:07;;;;;;;7.50;6.90;;;20.10;69.00;;;;;;5016555;28;20448;-50
2021/08/26 10:47:48;;;;;;;8.07;7.33;;;19.90;69.00;;;;;;5031148;28;20447;-47
2021/08/26 10:50:21;;;;;;;9.77;6.70;;;19.90;69.30;;;;;;5029723;28;20451;-48
2021/08/26 10:53:00;;;;;;;7.83;7.13;;;19.90;69.20;;;;;;5024463;28;20440;-47
2021/08/26 10:55:31;;;;;;;7.77;7.07;;;19.70;68.80;;;;;;5027741;28;20805;-47
2021/08/26 10:58:23;;;;;;;7.67;6.93;;;19.70;69.80;;;;;;5032384;28;20444;-46
2021/08/26 11:00:49;;;;;;;8.23;7.43;;;20.10;70.10;;;;;;5026994;28;20445;-48
2021/08/26 11:03:42;;;;;;;7.80;7.10;;;20.10;69.20;;;;;;5025248;28;20967;-46
2021/08/26 11:06:16;;;;;;;7.03;6.43;;;20.30;69.80;;;;;;5026621;28;21021;-48
2021/08/26 11:08:47;;;;;;;7.77;7.03;;;20.30;68.50;;;;;;5029080;28;21184;-46
2021/08/26 11:11:28;;;;;;;7.50;6.80;;;20.40;69.10;;;;;;5026932;28;20460;-48
2021/08/26 11:14:02;;;;;;;7.20;6.60;;;20.50;69.00;;;;;;5014028;28;20499;-48
2021/08/26 11:16:28;;;;;;;8.30;6.73;;;20.80;68.60;;;;;;5022439;28;20443;-47
2021/08/26 11:18:56;;;;;;;8.00;7.10;;;20.80;67.20;;;;;;5016677;28;20578;-48
2021/08/26 11:24:22;;;;;;;6.20;5.60;;;20.90;65.60;;;;;;5028757;28;20439;-46
2021/08/26 11:26:51;;;;;;;7.20;6.50;;;20.90;66.10;;;;;;5019915;28;20444;-47
2021/08/26 11:29:17;;;;;;;7.57;6.83;;;20.90;65.80;;;;;;5015031;28;20580;-46
2021/08/26 11:31:52;;;;;;;7.43;6.70;;;21.20;66.00;;;;;;5032334;28;20432;-48
2021/08/26 11:34:22;;;;;;;7.13;6.53;;;21.30;64.60;;;;;;5032096;28;20224;-48
2021/08/26 11:37:23;;;;;;;7.10;6.50;;;21.50;63.60;;;;;;5013360;28;20531;-46
2021/08/26 11:40:05;;;;;;;6.90;6.20;;;21.40;62.30;;;;;;5018669;28;20495;-47
2021/08/26 11:42:41;;;;;;;8.73;6.33;;;21.30;63.00;;;;;;5029017;28;20527;-45
2021/08/26 11:45:23;;;;;;;6.97;6.30;;;21.30;62.20;;;;;;5027978;28;20436;-47
2021/08/26 11:47:53;;;;;;;5.90;5.40;;;21.50;61.90;;;;;;5031462;28;20502;-46
2021/08/26 11:50:21;;;;;;;8.20;7.40;;;21.60;61.70;;;;;;5024659;28;20428;-46
2021/08/26 11:52:55;;;;;;;7.60;6.80;;;21.70;61.10;;;;;;5025734;28;20440;-47
2021/08/26 11:55:23;;;;;;;7.40;6.70;;;21.80;61.50;;;;;;5018556;28;20463;-47
2021/08/26 11:58:04;;;;;;;7.33;6.63;;;21.70;60.90;;;;;;5020755;28;20443;-46
2021/08/26 12:00:30;;;;;;;6.60;5.97;;;21.50;59.80;;;;;;5030961;28;20443;-47
2021/08/26 12:02:57;;;;;;;8.90;6.73;;;21.60;61.20;;;;;;5030411;28;20441;-46
2021/08/26 12:05:24;;;;;;;12.60;7.23;;;21.60;60.00;;;;;;5019987;28;20193;-46
2021/08/26 12:07:51;;;;;;;8.20;7.30;;;21.60;59.50;;;;;;5023665;28;20469;-47
2021/08/26 12:10:29;;;;;;;8.13;7.33;;;21.70;60.70;;;;;;5026984;28;20448;-46
2021/08/26 12:13:04;;;;;;;8.70;6.93;;;21.70;59.90;;;;;;5025589;28;20440;-46
2021/08/26 12:15:44;;;;;;;8.60;6.80;;;21.70;59.70;;;;;;5021180;28;20519;-48
2021/08/26 12:18:12;;;;;;;7.40;6.50;;;21.80;59.00;;;;;;5027432;28;20544;-46
2021/08/26 12:20:45;;;;;;;7.77;6.90;;;21.80;59.40;;;;;;5027920;28;20451;-47
2021/08/26 12:23:19;;;;;;;8.67;6.93;;;21.80;58.40;;;;;;5025770;28;20527;-48
2021/08/26 12:26:02;;;;;;;6.80;6.13;;;21.90;58.60;;;;;;5023668;28;20451;-46
2021/08/26 12:28:32;;;;;;;7.43;6.37;;;21.90;58.40;;;;;;5021237;28;20493;-47
2021/08/26 12:30:58;;;;;;;8.50;7.40;;;22.20;58.90;;;;;;5020301;28;20441;-49
2021/08/26 12:33:23;;;;;;;8.67;6.63;;;22.50;57.50;;;;;;5020592;28;20497;-49
2021/08/26 12:35:55;;;;;;;9.10;6.93;;;22.40;57.00;;;;;;5026801;28;20191;-47
2021/08/26 12:38:41;;;;;;;8.17;6.60;;;22.20;57.00;;;;;;5025137;28;20300;-46
2021/08/26 12:41:13;;;;;;;8.80;6.33;;;22.10;57.30;;;;;;5021740;28;20455;-49
2021/08/26 12:43:52;;;;;;;7.67;6.87;;;22.20;56.90;;;;;;5014580;28;20479;-46
2021/08/26 12:46:21;;;;;;;7.80;6.30;;;22.40;57.30;;;;;;5024483;28;20439;-46
2021/08/26 12:48:48;;;;;;;8.40;6.20;;;22.30;56.60;;;;;;5025226;28;20492;-47
2021/08/26 12:51:20;;;;;;;8.03;6.10;;;22.40;57.60;;;;;;5022170;28;20460;-47
2021/08/26 12:54:11;;;;;;;7.87;6.30;;;22.50;57.50;;;;;;5023344;28;20821;-47